Time;durP1;ratioP1;P1;durP2;ratioP2;P2;SDS_P1;SDS_P2;PMS_P1;PMS_P2;Temp;Humidity;BMP_temperature;BMP_pressure;BME280_temperature;BME280_humidity;BME280_pressure;Samples;Min_cycle;Max_cycle;Signal;HPM_P1;HPM_P2
2022/10/16 00:00:56;;;;;;;3.33;1.50;;;12.50;99.90;;;;;;4995258;28;20022;-84
2022/10/16 00:03:22;;;;;;;2.63;1.67;;;12.50;99.90;;;;;;4984151;28;20030;-84
2022/10/16 00:05:48;;;;;;;3.20;2.03;;;12.50;99.90;;;;;;4976908;28;20382;-84
2022/10/16 00:08:14;;;;;;;2.85;1.60;;;12.50;99.90;;;;;;4990830;28;20092;-85
2022/10/16 00:10:40;;;;;;;3.63;1.95;;;12.50;99.90;;;;;;4996990;28;20022;-85
2022/10/16 00:13:06;;;;;;;5.30;2.28;;;12.40;99.90;;;;;;4980801;28;20129;-85
2022/10/16 00:15:38;;;;;;;2.67;1.88;;;12.50;99.90;;;;;;4997047;28;20531;-85
2022/10/16 00:18:05;;;;;;;3.10;2.08;;;12.50;99.90;;;;;;4997168;28;20032;-85
2022/10/16 00:20:34;;;;;;;3.90;2.28;;;12.50;99.90;;;;;;4990956;28;20117;-85
2022/10/16 00:23:01;;;;;;;3.97;2.13;;;12.50;99.90;;;;;;4997511;28;20030;-85
2022/10/16 00:25:27;;;;;;;3.03;1.90;;;12.50;99.90;;;;;;4996874;28;20117;-84
2022/10/16 00:27:53;;;;;;;4.20;2.30;;;12.50;99.90;;;;;;4996776;28;20030;-84
2022/10/16 00:30:19;;;;;;;4.53;2.25;;;12.50;99.90;;;;;;4996692;28;20033;-84
2022/10/16 00:32:45;;;;;;;5.53;1.92;;;12.50;99.90;;;;;;4996761;28;20354;-85
2022/10/16 00:35:10;;;;;;;3.10;2.03;;;12.50;99.90;;;;;;4980901;28;20026;-85
2022/10/16 00:37:36;;;;;;;2.90;2.00;;;12.50;99.90;;;;;;4996356;28;20116;-83
2022/10/16 00:40:02;;;;;;;5.55;2.40;;;12.50;99.90;;;;;;4996177;28;20042;-86
2022/10/16 00:42:27;;;;;;;4.32;2.25;;;12.50;99.90;;;;;;4996240;28;20030;-85
2022/10/16 00:44:57;;;;;;;3.45;2.25;;;12.50;99.90;;;;;;5014903;28;20026;-86
2022/10/16 00:47:29;;;;;;;3.60;2.33;;;12.50;99.90;;;;;;4998333;28;20030;-86
2022/10/16 00:50:31;;;;;;;3.78;2.40;;;12.50;99.90;;;;;;4981431;28;20118;-85
2022/10/16 00:53:02;;;;;;;4.07;2.17;;;12.50;99.90;;;;;;4994585;28;20117;-84
2022/10/16 00:55:30;;;;;;;3.10;1.70;;;12.50;99.90;;;;;;4987361;28;20065;-85
2022/10/16 00:57:57;;;;;;;2.50;1.80;;;12.50;99.90;;;;;;5006068;28;20022;-84
2022/10/16 01:00:25;;;;;;;3.67;2.25;;;12.40;99.90;;;;;;5007002;28;20006;-84
2022/10/16 01:02:55;;;;;;;3.92;2.00;;;12.40;99.90;;;;;;5023067;28;20030;-83
2022/10/16 01:05:39;;;;;;;5.60;2.50;;;12.40;99.90;;;;;;5024255;28;20010;-84
2022/10/16 01:08:13;;;;;;;4.43;2.33;;;12.40;99.90;;;;;;5020463;28;20027;-83
2022/10/16 01:10:54;;;;;;;6.30;2.75;;;12.40;99.90;;;;;;5013584;28;20025;-86
2022/10/16 01:13:58;;;;;;;4.65;2.60;;;12.40;99.90;;;;;;5014538;28;20093;-85
2022/10/16 01:16:36;;;;;;;3.90;2.30;;;12.40;99.90;;;;;;4952301;28;20057;-85
2022/10/16 01:19:12;;;;;;;4.47;2.60;;;12.40;99.90;;;;;;5001208;28;20080;-85
2022/10/16 01:21:45;;;;;;;3.85;2.78;;;12.40;99.90;;;;;;4989375;28;20031;-85
2022/10/16 01:24:38;;;;;;;5.07;2.95;;;12.40;99.90;;;;;;4999396;28;20025;-85
2022/10/16 01:27:04;;;;;;;4.80;2.58;;;12.30;99.90;;;;;;5000117;28;20022;-86
2022/10/16 01:29:54;;;;;;;6.28;2.50;;;12.30;99.90;;;;;;5000230;28;20084;-85
2022/10/16 01:32:36;;;;;;;3.85;2.55;;;12.30;99.90;;;;;;5015787;28;20030;-86
2022/10/16 01:35:29;;;;;;;4.38;2.33;;;12.40;99.90;;;;;;4998367;28;20497;-85
2022/10/16 01:38:12;;;;;;;3.30;2.17;;;12.40;99.90;;;;;;4986062;28;20084;-85
2022/10/16 01:40:41;;;;;;;3.75;2.40;;;12.30;99.90;;;;;;4999136;28;20053;-84
2022/10/16 01:43:20;;;;;;;4.63;2.50;;;12.30;99.90;;;;;;4979885;28;20382;-85
2022/10/16 01:45:47;;;;;;;4.45;2.10;;;12.30;99.90;;;;;;4994265;28;20030;-84
2022/10/16 01:48:16;;;;;;;3.03;2.13;;;12.30;99.90;;;;;;4999734;28;20022;-85
2022/10/16 01:50:44;;;;;;;3.33;2.20;;;12.40;99.90;;;;;;5009664;28;20017;-85
2022/10/16 01:53:12;;;;;;;3.33;2.28;;;12.40;99.90;;;;;;4993659;28;20034;-85
2022/10/16 01:55:44;;;;;;;3.95;2.38;;;12.50;99.90;;;;;;5002191;28;20460;-85
2022/10/16 01:58:13;;;;;;;3.78;2.38;;;12.50;99.90;;;;;;4999620;28;20506;-85
2022/10/16 02:00:43;;;;;;;3.50;2.00;;;12.50;99.90;;;;;;4999546;28;20049;-85
2022/10/16 02:03:11;;;;;;;3.90;2.17;;;12.50;99.90;;;;;;4985685;28;20022;-85
2022/10/16 02:05:42;;;;;;;4.50;2.28;;;12.50;99.90;;;;;;4999133;28;20353;-85
2022/10/16 02:08:08;;;;;;;4.78;2.05;;;12.50;99.90;;;;;;4999103;28;20090;-86
2022/10/16 02:10:36;;;;;;;2.53;1.80;;;12.50;99.90;;;;;;4999076;28;20025;-86
2022/10/16 02:13:06;;;;;;;2.92;1.70;;;12.50;99.90;;;;;;4998503;28;20524;-84
2022/10/16 02:15:32;;;;;;;3.35;1.85;;;12.50;99.90;;;;;;4987085;28;20087;-85
2022/10/16 02:17:57;;;;;;;4.63;2.03;;;12.60;99.90;;;;;;4971217;28;20031;-86
2022/10/16 02:20:28;;;;;;;3.40;2.15;;;12.60;99.90;;;;;;4996811;28;20034;-85
2022/10/16 02:22:55;;;;;;;4.28;2.17;;;12.60;99.90;;;;;;5016646;28;20079;-84
2022/10/16 02:25:32;;;;;;;3.05;2.20;;;12.70;99.90;;;;;;4983029;28;20034;-85
2022/10/16 02:28:01;;;;;;;2.85;2.05;;;12.70;99.90;;;;;;5016432;28;20022;-84
2022/10/16 02:30:36;;;;;;;2.47;1.73;;;12.60;99.90;;;;;;4995706;28;20466;-85
2022/10/16 02:33:04;;;;;;;4.35;2.25;;;12.60;99.90;;;;;;4989280;28;20029;-85
2022/10/16 02:35:31;;;;;;;4.55;1.88;;;12.60;99.90;;;;;;4998704;28;20037;-85
2022/10/16 02:37:58;;;;;;;3.17;2.08;;;12.60;99.90;;;;;;4998732;28;20032;-85
2022/10/16 02:40:25;;;;;;;3.20;1.90;;;12.60;99.90;;;;;;4998493;28;20046;-85
2022/10/16 02:42:54;;;;;;;2.88;1.67;;;12.60;99.90;;;;;;5016471;28;20112;-84
2022/10/16 02:45:21;;;;;;;2.38;1.40;;;12.50;99.90;;;;;;4986480;28;20419;-84
2022/10/16 02:47:46;;;;;;;2.25;1.60;;;12.50;99.90;;;;;;5009760;28;20030;-85
2022/10/16 02:50:12;;;;;;;3.33;1.63;;;12.50;99.90;;;;;;4990432;28;20458;-85
2022/10/16 02:52:38;;;;;;;2.42;1.60;;;12.50;99.90;;;;;;5029426;28;20022;-84
2022/10/16 02:55:04;;;;;;;2.42;1.40;;;12.50;99.90;;;;;;5013016;28;20011;-85
2022/10/16 02:57:30;;;;;;;2.33;1.50;;;12.40;99.90;;;;;;5018200;28;20018;-84
2022/10/16 02:59:55;;;;;;;2.60;1.45;;;12.40;99.90;;;;;;5015704;28;20229;-85
2022/10/16 03:02:21;;;;;;;2.88;1.80;;;12.40;99.90;;;;;;4999370;28;20029;-85
2022/10/16 03:04:46;;;;;;;2.70;1.77;;;12.30;99.90;;;;;;4985457;28;20415;-84
2022/10/16 03:07:12;;;;;;;2.60;1.70;;;12.30;99.90;;;;;;4998835;28;20482;-85
2022/10/16 03:09:38;;;;;;;2.35;1.73;;;12.30;99.90;;;;;;4995346;28;20029;-85
2022/10/16 03:12:03;;;;;;;3.10;1.83;;;12.40;99.90;;;;;;5003989;28;20068;-86
2022/10/16 03:14:29;;;;;;;2.78;1.90;;;12.40;99.90;;;;;;4997828;28;20026;-85
2022/10/16 03:16:55;;;;;;;2.55;1.80;;;12.40;99.90;;;;;;4996595;28;20018;-85
2022/10/16 03:19:22;;;;;;;4.22;2.05;;;12.30;99.90;;;;;;5015692;28;20061;-85
2022/10/16 03:21:47;;;;;;;3.05;1.70;;;12.40;99.90;;;;;;4997852;28;20466;-85
2022/10/16 03:24:13;;;;;;;2.60;1.52;;;12.30;99.90;;;;;;4997966;28;20017;-85
2022/10/16 03:26:40;;;;;;;4.72;2.20;;;12.30;99.90;;;;;;4998015;28;20018;-85
2022/10/16 03:29:06;;;;;;;1.85;1.40;;;12.30;99.90;;;;;;4997211;28;20366;-85
2022/10/16 03:31:32;;;;;;;3.35;1.77;;;12.30;99.90;;;;;;4997497;28;20028;-85
2022/10/16 03:33:59;;;;;;;2.55;1.70;;;12.30;99.90;;;;;;4997460;28;20469;-85
2022/10/16 03:36:25;;;;;;;2.15;1.35;;;12.40;99.90;;;;;;4997477;28;20096;-84
2022/10/16 03:38:50;;;;;;;3.08;1.83;;;12.40;99.90;;;;;;5011127;28;20043;-84
2022/10/16 03:41:16;;;;;;;2.80;1.52;;;12.40;99.90;;;;;;4997753;28;20125;-85
2022/10/16 03:43:42;;;;;;;3.63;1.67;;;12.30;99.90;;;;;;4997776;28;20057;-84
2022/10/16 03:46:07;;;;;;;2.53;1.38;;;12.30;99.90;;;;;;4997340;28;20017;-85
2022/10/16 03:48:33;;;;;;;2.80;1.50;;;12.40;99.90;;;;;;4997389;28;20080;-85
2022/10/16 03:50:59;;;;;;;2.25;1.20;;;12.30;99.90;;;;;;5015300;28;20053;-85
2022/10/16 03:53:25;;;;;;;2.15;1.60;;;12.30;99.90;;;;;;4997561;28;20084;-85
2022/10/16 03:55:51;;;;;;;2.17;1.52;;;12.30;99.90;;;;;;4999226;28;20057;-85
2022/10/16 03:58:16;;;;;;;2.22;1.50;;;12.30;99.90;;;;;;5009107;28;20033;-85
2022/10/16 04:00:47;;;;;;;3.47;1.42;;;12.30;99.90;;;;;;4996754;28;20496;-84
2022/10/16 04:03:13;;;;;;;2.53;1.30;;;12.30;99.90;;;;;;4990641;28;20474;-85
2022/10/16 04:05:39;;;;;;;2.47;1.30;;;12.20;99.90;;;;;;5011391;28;20052;-85
2022/10/16 04:08:05;;;;;;;2.03;1.20;;;12.20;99.90;;;;;;5004304;28;20068;-85
2022/10/16 04:10:31;;;;;;;2.00;1.30;;;12.20;99.90;;;;;;4987790;28;20089;-86
2022/10/16 04:12:57;;;;;;;2.83;1.10;;;12.20;99.90;;;;;;4977320;28;20034;-85
2022/10/16 04:15:24;;;;;;;3.85;1.38;;;12.20;99.90;;;;;;4985911;28;20022;-85
2022/10/16 04:17:51;;;;;;;2.50;1.50;;;12.30;99.90;;;;;;5014352;28;20378;-85
2022/10/16 04:20:17;;;;;;;2.22;1.40;;;12.30;99.90;;;;;;4996736;28;20030;-85
2022/10/16 04:22:44;;;;;;;3.42;1.20;;;12.40;99.90;;;;;;4997139;28;20084;-84
2022/10/16 04:25:11;;;;;;;4.25;1.63;;;12.40;99.90;;;;;;4983033;28;20493;-85
2022/10/16 04:27:37;;;;;;;2.15;1.42;;;12.40;99.90;;;;;;4996883;28;20425;-84
2022/10/16 04:30:03;;;;;;;2.72;1.40;;;12.40;99.90;;;;;;4980480;28;20432;-84
2022/10/16 04:32:29;;;;;;;1.90;1.38;;;12.30;99.90;;;;;;4996700;28;20030;-85
2022/10/16 04:34:54;;;;;;;2.70;1.50;;;12.40;99.90;;;;;;4981440;28;20155;-85
2022/10/16 04:37:26;;;;;;;2.63;1.70;;;12.40;99.90;;;;;;4996576;28;20396;-85
2022/10/16 04:39:53;;;;;;;5.15;2.17;;;12.50;99.90;;;;;;4996523;28;20042;-86
2022/10/16 04:42:19;;;;;;;3.67;1.52;;;12.40;99.90;;;;;;5012024;28;20112;-85
2022/10/16 04:44:45;;;;;;;2.17;1.20;;;12.40;99.90;;;;;;5010087;28;20026;-85
2022/10/16 04:47:11;;;;;;;2.80;1.70;;;12.40;99.90;;;;;;5015038;28;20037;-85
2022/10/16 04:49:37;;;;;;;2.15;1.50;;;12.40;99.90;;;;;;5011560;28;20026;-85
2022/10/16 04:52:03;;;;;;;2.22;1.50;;;12.30;99.90;;;;;;5002190;28;20036;-85
2022/10/16 04:54:29;;;;;;;3.38;1.60;;;12.30;99.90;;;;;;4998173;28;20117;-85
2022/10/16 04:56:54;;;;;;;3.20;1.70;;;12.30;99.90;;;;;;5015294;28;20022;-85
2022/10/16 04:59:22;;;;;;;3.92;1.60;;;12.30;99.90;;;;;;4997546;28;20026;-85
2022/10/16 05:01:47;;;;;;;2.55;1.65;;;12.30;99.90;;;;;;4989120;28;20113;-85
2022/10/16 05:04:14;;;;;;;4.20;1.65;;;12.30;99.90;;;;;;4992796;28;20128;-85
2022/10/16 05:06:40;;;;;;;2.33;1.65;;;12.30;99.90;;;;;;5014683;28;20033;-85
2022/10/16 05:09:06;;;;;;;2.80;1.80;;;12.30;99.90;;;;;;5014079;28;20033;-85
2022/10/16 05:11:32;;;;;;;2.25;1.48;;;12.30;99.90;;;;;;4996383;28;20061;-86
2022/10/16 05:13:58;;;;;;;3.40;1.58;;;12.20;99.90;;;;;;5013690;28;20030;-84
2022/10/16 05:16:24;;;;;;;1.70;1.10;;;12.20;99.90;;;;;;4996649;28;20101;-85
2022/10/16 05:18:52;;;;;;;2.70;1.20;;;12.10;99.90;;;;;;4996726;28;20026;-85
2022/10/16 05:21:18;;;;;;;2.38;1.25;;;12.10;99.90;;;;;;5014787;28;20038;-85
2022/10/16 05:23:44;;;;;;;1.60;1.20;;;12.00;99.90;;;;;;4996408;28;20462;-85
2022/10/16 05:26:11;;;;;;;3.55;1.30;;;12.00;99.90;;;;;;5013937;28;20022;-85
2022/10/16 05:28:37;;;;;;;1.83;1.20;;;11.90;99.90;;;;;;4996190;28;20026;-85
2022/10/16 05:31:07;;;;;;;2.47;1.35;;;11.90;99.90;;;;;;4996081;28;20029;-85
2022/10/16 05:33:33;;;;;;;1.92;1.40;;;11.90;99.90;;;;;;4996276;28;20045;-84
2022/10/16 05:36:05;;;;;;;1.40;1.10;;;11.90;99.90;;;;;;5017259;28;20022;-85
2022/10/16 05:38:30;;;;;;;2.20;1.40;;;11.80;99.90;;;;;;4999598;28;20018;-85
2022/10/16 05:40:56;;;;;;;2.10;1.20;;;11.80;99.90;;;;;;4999333;28;20057;-85
2022/10/16 05:43:22;;;;;;;1.52;1.10;;;11.80;99.90;;;;;;4999684;28;20116;-85
2022/10/16 05:46:00;;;;;;;1.75;1.27;;;11.80;99.90;;;;;;4999402;28;20014;-85
2022/10/16 05:48:26;;;;;;;1.73;1.17;;;11.70;99.90;;;;;;4999565;28;20022;-84
2022/10/16 05:51:04;;;;;;;1.80;1.20;;;11.70;99.90;;;;;;5000230;28;20030;-84
2022/10/16 05:53:32;;;;;;;3.35;1.00;;;11.70;99.90;;;;;;4999643;28;20029;-84
2022/10/16 05:55:58;;;;;;;3.30;1.25;;;11.60;99.90;;;;;;4996919;28;20022;-85
2022/10/16 05:58:27;;;;;;;3.30;1.10;;;11.60;99.90;;;;;;4999861;28;20474;-85
2022/10/16 06:01:03;;;;;;;2.15;1.00;;;11.60;99.90;;;;;;4995933;28;20116;-84
2022/10/16 06:03:29;;;;;;;2.05;1.20;;;11.60;99.90;;;;;;4991958;28;20034;-84
2022/10/16 06:05:55;;;;;;;1.75;1.10;;;11.60;99.90;;;;;;4983083;28;20022;-84
2022/10/16 06:08:22;;;;;;;2.13;1.35;;;11.60;99.90;;;;;;4998946;28;20036;-84
2022/10/16 06:10:59;;;;;;;2.25;1.40;;;11.50;99.90;;;;;;4982454;28;20117;-85
2022/10/16 06:13:25;;;;;;;1.85;1.42;;;11.50;99.90;;;;;;4979793;28;20038;-84
2022/10/16 06:15:51;;;;;;;2.03;1.42;;;11.50;99.90;;;;;;4986791;28;20034;-84
2022/10/16 06:18:16;;;;;;;2.45;1.45;;;11.50;99.90;;;;;;4994775;28;20073;-84
2022/10/16 06:20:42;;;;;;;2.90;1.40;;;11.60;99.90;;;;;;4995605;28;20021;-84
2022/10/16 06:23:08;;;;;;;2.45;1.55;;;11.60;99.90;;;;;;5006498;28;20098;-85
2022/10/16 06:25:33;;;;;;;2.53;1.67;;;11.70;99.90;;;;;;4999140;28;20018;-85
2022/10/16 06:27:59;;;;;;;3.20;1.85;;;11.80;99.90;;;;;;4999159;28;20045;-85
2022/10/16 06:30:25;;;;;;;3.30;1.77;;;11.80;99.90;;;;;;5016732;28;20022;-85
2022/10/16 06:32:51;;;;;;;2.33;1.58;;;11.90;99.90;;;;;;4998868;28;20026;-85
2022/10/16 06:35:16;;;;;;;3.33;2.33;;;11.90;99.90;;;;;;4998781;28;20026;-86
2022/10/16 06:37:42;;;;;;;2.58;1.63;;;12.00;99.90;;;;;;5016749;28;20354;-84
2022/10/16 06:40:08;;;;;;;3.28;2.17;;;12.10;99.90;;;;;;5007574;28;20382;-84
2022/10/16 06:42:33;;;;;;;3.15;1.60;;;12.20;99.90;;;;;;5021141;28;20079;-84
2022/10/16 06:44:59;;;;;;;2.53;1.63;;;12.20;99.90;;;;;;5022882;28;20014;-83
2022/10/16 06:47:25;;;;;;;3.45;1.90;;;12.30;99.90;;;;;;5039370;28;20037;-84
2022/10/16 06:49:51;;;;;;;3.75;1.95;;;12.40;99.90;;;;;;4985420;28;20033;-85
2022/10/16 06:52:16;;;;;;;2.85;1.58;;;12.40;99.90;;;;;;4999320;28;20129;-85
2022/10/16 06:54:42;;;;;;;2.83;1.88;;;12.50;99.90;;;;;;4999071;28;20030;-85
2022/10/16 06:57:07;;;;;;;2.63;1.80;;;12.50;99.90;;;;;;4999133;28;20026;-85
2022/10/16 06:59:33;;;;;;;2.90;1.80;;;12.60;99.90;;;;;;4998804;28;20018;-85
2022/10/16 07:01:59;;;;;;;3.33;1.70;;;12.70;99.90;;;;;;4998284;28;20060;-85
2022/10/16 07:04:24;;;;;;;3.45;2.25;;;12.70;99.90;;;;;;4998469;28;20022;-85
2022/10/16 07:06:51;;;;;;;2.95;2.00;;;12.80;99.90;;;;;;4998461;28;20422;-84
2022/10/16 07:09:17;;;;;;;4.00;2.10;;;12.80;99.90;;;;;;4998054;28;20030;-84
2022/10/16 07:11:42;;;;;;;2.67;1.42;;;12.80;99.90;;;;;;4991317;28;20138;-84
2022/10/16 07:14:19;;;;;;;3.45;1.58;;;12.90;99.90;;;;;;4978650;28;20029;-85
2022/10/16 07:16:45;;;;;;;4.18;1.67;;;12.90;99.90;;;;;;4993255;28;20072;-85
2022/10/16 07:19:13;;;;;;;3.25;1.92;;;13.00;99.90;;;;;;4998609;28;20022;-85
2022/10/16 07:21:38;;;;;;;3.65;2.17;;;13.00;99.90;;;;;;5015617;28;20108;-84
2022/10/16 07:24:07;;;;;;;3.60;1.95;;;13.10;99.90;;;;;;5015537;28;20100;-84
2022/10/16 07:26:35;;;;;;;2.83;1.70;;;13.10;99.90;;;;;;5015635;28;20018;-84
2022/10/16 07:29:01;;;;;;;3.45;1.85;;;13.20;99.90;;;;;;4992993;28;20077;-86
2022/10/16 07:31:27;;;;;;;3.60;2.08;;;13.10;99.90;;;;;;4989428;28;20038;-85
2022/10/16 07:33:53;;;;;;;3.25;1.85;;;13.20;99.90;;;;;;4997496;28;20066;-85
2022/10/16 07:36:22;;;;;;;4.28;2.30;;;13.20;99.90;;;;;;4997601;28;20030;-85
2022/10/16 07:38:48;;;;;;;4.20;2.03;;;13.20;99.90;;;;;;4997560;28;20057;-86
2022/10/16 07:41:16;;;;;;;4.28;1.77;;;13.40;99.90;;;;;;4981298;28;20054;-85
2022/10/16 07:43:51;;;;;;;3.60;1.58;;;13.50;99.90;;;;;;4997726;28;20036;-84
2022/10/16 07:46:18;;;;;;;4.07;2.40;;;13.50;99.90;;;;;;4997345;28;20095;-85
2022/10/16 07:48:46;;;;;;;4.28;2.30;;;13.50;99.90;;;;;;4984484;28;20026;-85
2022/10/16 07:51:14;;;;;;;2.75;1.88;;;13.60;99.90;;;;;;4997043;28;20113;-84
2022/10/16 07:53:40;;;;;;;5.05;2.30;;;13.80;99.90;;;;;;4997465;28;20026;-84
2022/10/16 07:56:06;;;;;;;3.25;2.00;;;14.00;99.90;;;;;;4997349;28;20018;-85
2022/10/16 07:58:33;;;;;;;4.40;1.90;;;14.10;99.90;;;;;;4996557;28;20379;-84
2022/10/16 08:01:03;;;;;;;5.38;2.40;;;14.10;99.90;;;;;;5014224;28;20025;-84
2022/10/16 08:03:29;;;;;;;5.63;2.85;;;14.10;99.90;;;;;;4997280;28;20164;-84
2022/10/16 08:05:57;;;;;;;3.35;2.10;;;14.20;99.90;;;;;;4997181;28;20041;-85
2022/10/16 08:08:23;;;;;;;4.60;2.33;;;14.40;99.90;;;;;;4997020;28;20033;-84
2022/10/16 08:10:49;;;;;;;3.70;2.50;;;14.50;99.90;;;;;;4997072;28;20025;-85
2022/10/16 08:13:15;;;;;;;5.43;2.50;;;14.70;99.90;;;;;;4996796;28;20026;-83
2022/10/16 08:15:44;;;;;;;4.10;2.33;;;14.80;99.90;;;;;;5013207;28;20533;-84
2022/10/16 08:18:12;;;;;;;6.13;2.17;;;14.80;99.90;;;;;;5001680;28;20104;-84
2022/10/16 08:20:38;;;;;;;3.38;2.10;;;14.90;99.90;;;;;;4983668;28;20022;-85
2022/10/16 08:23:04;;;;;;;4.13;2.33;;;14.90;99.90;;;;;;5014542;28;20105;-84
2022/10/16 08:25:30;;;;;;;2.97;2.00;;;15.00;99.90;;;;;;4996696;28;20110;-84
2022/10/16 08:27:56;;;;;;;3.33;2.22;;;15.10;99.90;;;;;;5003625;28;20124;-84
2022/10/16 08:30:25;;;;;;;5.20;1.90;;;15.20;99.90;;;;;;4985381;28;20026;-84
2022/10/16 08:32:52;;;;;;;4.78;2.20;;;15.20;99.90;;;;;;5005912;28;20084;-85
2022/10/16 08:35:18;;;;;;;4.53;2.53;;;15.10;99.90;;;;;;5014323;28;20050;-84
2022/10/16 08:37:44;;;;;;;4.80;2.50;;;15.20;99.90;;;;;;5000141;28;20030;-82
2022/10/16 08:40:25;;;;;;;5.53;2.25;;;15.20;99.90;;;;;;5016811;28;20039;-83
2022/10/16 08:43:03;;;;;;;4.43;2.60;;;15.30;99.90;;;;;;4999257;28;20030;-84
2022/10/16 08:45:51;;;;;;;4.07;2.38;;;15.30;99.90;;;;;;4998268;28;20033;-83
2022/10/16 08:48:38;;;;;;;4.15;2.50;;;15.40;99.90;;;;;;5001161;28;20048;-83
2022/10/16 08:51:05;;;;;;;4.15;2.47;;;15.40;99.90;;;;;;4997358;28;20022;-84
2022/10/16 08:54:04;;;;;;;3.92;2.47;;;15.30;99.90;;;;;;4997376;28;20033;-85
2022/10/16 08:56:30;;;;;;;6.80;2.75;;;15.40;99.90;;;;;;5011508;28;20488;-83
2022/10/16 08:58:58;;;;;;;4.80;2.28;;;15.40;99.90;;;;;;4980055;28;20278;-83
2022/10/16 09:01:36;;;;;;;4.10;1.85;;;15.40;99.90;;;;;;4995653;28;20014;-83
2022/10/16 09:04:20;;;;;;;6.80;2.88;;;15.50;99.90;;;;;;4997714;28;20428;-83
2022/10/16 09:06:50;;;;;;;6.95;2.42;;;15.90;99.90;;;;;;4998196;28;20109;-83
2022/10/16 09:09:31;;;;;;;4.72;2.00;;;17.10;99.90;;;;;;4997988;28;20381;-84
2022/10/16 09:12:05;;;;;;;3.42;1.60;;;18.50;99.90;;;;;;5000207;28;20115;-82
2022/10/16 09:14:47;;;;;;;5.60;1.85;;;19.40;99.90;;;;;;5000478;28;20076;-83
2022/10/16 09:17:12;;;;;;;4.80;1.52;;;20.10;99.90;;;;;;5016954;28;20712;-82
2022/10/16 09:19:46;;;;;;;3.97;1.50;;;20.10;99.90;;;;;;4997121;28;20076;-82
2022/10/16 09:22:16;;;;;;;2.63;1.10;;;20.40;99.90;;;;;;4999439;28;20116;-82
2022/10/16 09:24:42;;;;;;;3.25;1.20;;;20.80;99.90;;;;;;5000999;28;20022;-83
2022/10/16 09:27:15;;;;;;;4.80;1.38;;;21.00;99.90;;;;;;5003412;28;20018;-83
2022/10/16 09:29:43;;;;;;;3.42;1.27;;;21.80;99.90;;;;;;4999691;28;20059;-84
2022/10/16 09:32:14;;;;;;;3.20;1.17;;;22.30;99.90;;;;;;5025716;28;20026;-82
2022/10/16 09:34:47;;;;;;;3.50;0.85;;;22.50;99.90;;;;;;5023256;28;20017;-83
2022/10/16 09:37:17;;;;;;;2.15;0.80;;;22.70;99.90;;;;;;5004241;28;20030;-83
2022/10/16 09:39:49;;;;;;;3.38;0.80;;;22.90;99.90;;;;;;4999236;28;20022;-82
2022/10/16 09:42:21;;;;;;;2.92;1.00;;;23.20;99.90;;;;;;5002382;28;20037;-83
2022/10/16 09:44:49;;;;;;;4.55;1.17;;;23.10;99.90;;;;;;5003602;28;20084;-83
2022/10/16 09:47:21;;;;;;;3.35;1.02;;;22.60;99.90;;;;;;4999606;28;20057;-82
2022/10/16 09:49:59;;;;;;;4.38;1.40;;;22.20;99.90;;;;;;5001180;28;20084;-82
2022/10/16 09:52:25;;;;;;;3.53;1.00;;;21.90;99.90;;;;;;4999375;28;20040;-82
2022/10/16 09:54:55;;;;;;;4.13;1.13;;;22.00;99.90;;;;;;5004190;28;20156;-81
2022/10/16 09:57:23;;;;;;;2.28;0.77;;;22.30;99.90;;;;;;4996787;28;20014;-81
2022/10/16 09:59:53;;;;;;;3.35;0.93;;;22.70;99.90;;;;;;4982040;28;20030;-82
2022/10/16 10:02:39;;;;;;;5.13;1.17;;;23.60;99.90;;;;;;5018909;28;20069;-82
2022/10/16 10:05:17;;;;;;;5.18;1.20;;;24.40;99.90;;;;;;4996196;28;20030;-81
2022/10/16 10:07:49;;;;;;;4.68;1.15;;;24.20;99.90;;;;;;5016405;28;20020;-83
2022/10/16 10:10:30;;;;;;;5.00;0.97;;;24.30;99.90;;;;;;4982875;28;20034;-83
2022/10/16 10:12:56;;;;;;;4.40;1.15;;;24.50;99.90;;;;;;4997897;28;20034;-82
2022/10/16 10:15:23;;;;;;;5.45;1.02;;;25.00;99.90;;;;;;5015674;28;20024;-82
2022/10/16 10:17:57;;;;;;;2.55;0.93;;;25.40;99.90;;;;;;4987965;28;20377;-82
2022/10/16 10:20:34;;;;;;;4.72;1.10;;;25.50;99.90;;;;;;4995246;28;20026;-82
2022/10/16 10:23:01;;;;;;;4.28;1.40;;;25.70;99.90;;;;;;5017008;28;20036;-82
2022/10/16 10:25:45;;;;;;;5.55;1.40;;;25.80;99.90;;;;;;4998483;28;20040;-81
2022/10/16 10:28:36;;;;;;;6.00;1.52;;;25.10;99.90;;;;;;4998914;28;20096;-81
2022/10/16 10:31:53;;;;;;;4.32;1.20;;;24.60;99.90;;;;;;5004144;28;20033;-82
2022/10/16 10:34:37;;;;;;;5.18;1.00;;;25.50;99.90;;;;;;4945942;28;20034;-82
2022/10/16 10:37:09;;;;;;;3.50;0.90;;;26.20;99.90;;;;;;4999025;28;20048;-81
2022/10/16 10:39:55;;;;;;;4.97;1.35;;;26.70;99.90;;;;;;5008060;28;20033;-81
2022/10/16 10:42:28;;;;;;;3.75;0.98;;;27.20;99.90;;;;;;5003319;28;20053;-80
2022/10/16 10:45:07;;;;;;;4.75;0.95;;;27.40;99.90;;;;;;5014510;28;20093;-80
2022/10/16 10:48:00;;;;;;;5.47;1.20;;;27.70;99.90;;;;;;5000285;28;20018;-82
2022/10/16 10:50:59;;;;;;;8.52;1.02;;;27.50;99.90;;;;;;4999158;28;20053;-81
2022/10/16 10:53:36;;;;;;;5.70;1.10;;;27.60;99.90;;;;;;4989765;28;20038;-81
2022/10/16 10:56:05;;;;;;;3.83;1.00;;;27.80;99.90;;;;;;4999107;28;20476;-81
2022/10/16 10:59:16;;;;;;;5.57;1.30;;;27.20;99.90;;;;;;4998349;28;20124;-82
2022/10/16 11:02:31;;;;;;;5.55;1.42;;;26.60;99.90;;;;;;4998386;28;20041;-81
2022/10/16 11:05:15;;;;;;;4.50;1.02;;;27.00;99.90;;;;;;4988741;28;20049;-82
2022/10/16 11:07:48;;;;;;;4.50;1.10;;;27.50;99.90;;;;;;5000575;28;20034;-82
2022/10/16 11:10:21;;;;;;;6.20;1.15;;;26.90;99.90;;;;;;4998172;28;20080;-81
2022/10/16 11:12:55;;;;;;;4.32;1.13;;;26.40;99.90;;;;;;5004456;28;20057;-81
2022/10/16 11:15:33;;;;;;;5.25;1.20;;;26.50;99.90;;;;;;4995057;28;20116;-82
2022/10/16 11:18:16;;;;;;;5.35;1.42;;;27.00;99.90;;;;;;4989990;28;20033;-81
2022/10/16 11:21:10;;;;;;;4.20;1.10;;;26.60;99.90;;;;;;4973628;28;20152;-81
2022/10/16 11:23:54;;;;;;;5.40;1.10;;;25.90;99.90;;;;;;5006722;28;20048;-82
2022/10/16 11:26:25;;;;;;;4.00;1.25;;;26.10;99.90;;;;;;4994825;28;20444;-81
2022/10/16 11:28:56;;;;;;;6.47;1.10;;;25.70;99.90;;;;;;4997872;28;20025;-82
2022/10/16 11:31:40;;;;;;;5.78;1.17;;;26.30;99.90;;;;;;4993906;28;20280;-82
2022/10/16 11:34:21;;;;;;;3.45;0.80;;;26.80;99.90;;;;;;5007576;28;20022;-81
2022/10/16 11:37:09;;;;;;;4.90;1.00;;;26.60;99.90;;;;;;4996772;28;20083;-82
2022/10/16 11:39:37;;;;;;;4.53;1.00;;;26.80;99.90;;;;;;4990646;28;20030;-82
2022/10/16 11:42:12;;;;;;;4.22;1.17;;;27.50;99.90;;;;;;4994699;28;20022;-83
2022/10/16 11:44:56;;;;;;;4.85;1.23;;;28.20;99.90;;;;;;4992976;28;20030;-82
2022/10/16 11:47:40;;;;;;;4.43;0.90;;;28.40;99.90;;;;;;4994718;28;20555;-83
2022/10/16 11:50:27;;;;;;;3.40;0.98;;;28.50;99.90;;;;;;5009068;28;20470;-83
2022/10/16 11:52:59;;;;;;;5.03;1.52;;;28.40;99.90;;;;;;4992190;28;20402;-83
2022/10/16 11:55:31;;;;;;;5.10;1.10;;;28.10;99.90;;;;;;5013020;28;20038;-83
2022/10/16 11:58:24;;;;;;;2.85;0.80;;;28.10;99.90;;;;;;4996191;28;20180;-82
2022/10/16 12:00:58;;;;;;;2.90;0.77;;;28.60;99.90;;;;;;5007180;28;20524;-83
2022/10/16 12:03:45;;;;;;;3.35;0.90;;;29.20;99.90;;;;;;4991914;28;20099;-81
2022/10/16 12:06:29;;;;;;;5.20;1.00;;;29.70;99.90;;;;;;4990502;28;20065;-81
2022/10/16 12:09:00;;;;;;;3.83;1.10;;;29.00;99.90;;;;;;5008987;28;20382;-82
2022/10/16 12:11:34;;;;;;;4.55;1.23;;;28.20;99.90;;;;;;4991279;28;20038;-82
2022/10/16 12:14:12;;;;;;;4.85;1.13;;;28.30;99.90;;;;;;5010393;28;20061;-83
2022/10/16 12:16:50;;;;;;;4.10;1.13;;;28.20;99.80;;;;;;4992514;28;20141;-82
2022/10/16 12:19:19;;;;;;;4.65;1.50;;;28.30;99.90;;;;;;5009155;28;20032;-82
2022/10/16 12:21:46;;;;;;;3.03;0.88;;;28.60;99.80;;;;;;4996315;28;20025;-83
2022/10/16 12:24:31;;;;;;;5.57;1.40;;;28.40;99.10;;;;;;4992237;28;20401;-82
2022/10/16 12:26:57;;;;;;;4.88;1.13;;;28.40;98.80;;;;;;4996984;28;20582;-82
2022/10/16 12:29:39;;;;;;;4.72;1.17;;;28.70;99.40;;;;;;5008237;28;20026;-82
2022/10/16 12:32:37;;;;;;;4.90;1.10;;;29.00;98.90;;;;;;5008613;28;20101;-82
2022/10/16 12:35:06;;;;;;;4.85;1.35;;;29.30;98.30;;;;;;4993508;28;20413;-82
2022/10/16 12:37:36;;;;;;;3.30;0.80;;;29.10;97.50;;;;;;5011145;28;20060;-82
2022/10/16 12:40:25;;;;;;;3.13;0.95;;;29.60;98.00;;;;;;5002346;28;20053;-82
2022/10/16 12:42:52;;;;;;;4.25;1.30;;;29.70;97.70;;;;;;5006951;28;20036;-81
2022/10/16 12:45:25;;;;;;;4.40;1.15;;;28.50;97.20;;;;;;5004724;28;20037;-82
2022/10/16 12:47:54;;;;;;;4.50;1.20;;;27.70;98.60;;;;;;4991079;28;20030;-82
2022/10/16 12:50:30;;;;;;;3.30;0.80;;;28.00;99.40;;;;;;5013611;28;20030;-83
2022/10/16 12:52:57;;;;;;;2.72;0.70;;;28.60;99.40;;;;;;4988475;28;20517;-81
2022/10/16 12:55:23;;;;;;;5.05;1.05;;;28.90;99.50;;;;;;5011379;28;20034;-82
2022/10/16 12:58:14;;;;;;;4.68;1.27;;;29.30;98.70;;;;;;4993983;28;20030;-83
2022/10/16 13:00:57;;;;;;;2.53;0.90;;;29.50;98.40;;;;;;5009710;28;20057;-83
2022/10/16 13:04:13;;;;;;;4.32;1.17;;;29.60;98.40;;;;;;4988268;28;20026;-82
2022/10/16 13:07:26;;;;;;;4.70;1.10;;;29.50;98.40;;;;;;4913386;29;20031;-82
2022/10/16 13:10:16;;;;;;;3.70;0.90;;;29.30;98.20;;;;;;4889321;29;20134;-83